Princeton, Massachusetts
Current Conditions -  °F | °C
As of 8:52 PM on Wednesday 22 Oct 2014 (Local Time) from KFIT Reporting Station
Light Rain Light Rain  
Wind Chill: 43°   Ceiling: 900
Heat Index: 49°   Visibility: 3mi
Dew Point: 45°   Wind: 16mph
Humidity: 86%   Direction: 20°NNE
Pressure: 29.92"   Gusts: 25mph
Location:  42.45°N, 71.88°W
Report Text: KFIT 230052Z AUTO 02014G22KT 3SM -RA BR OVC009 09/07 A2992 RMK AO2 CIG 007V012 SLP135 P0002 T00940072
Loading
Personal Weather Stations






























Interactive Weather Map
Tropical Storm Tracking
New forecast layout! Learn more

10-Day Weather Forecast

Advertisements
Track Severe Weather on mobile